Wildomar, CA (92595)

1:12 PM PST on March 01, 2017 (GMT -0800)
BJB North Wildomar, South Sedco Hills | | Change Station
Active Advisory: Wind Advisory

Elev 1365 ft 33.63 °N, 117.28 °W | Updated 1 second ago

Clear
Clear
68.9 °F
Feels Like 68.9 °F
N
0.9
Wind Variable Wind from WNW
Gusts 2.5 mph

Today
High -- | Low -- °F
--% Chance of Precip.
Yesterday
High -- | Low -- °F
Precip. -- in
Pressure 30.23 in
Visibility 10.0 miles
Clouds Clear
Dew Point 18 °F
Humidity 14%
Rainfall 0.00 in
Snow Depth Not available.
6:17 AM 5:46 PM
Waxing Crescent, 13% visible
METAR KF70 012055Z AUTO 35005KT 10SM CLR 20/M02 A3023 RMK AO1
Pressure 30.23 in
Visibility 10.0 miles
Clouds Clear
Dew Point 18 °F
Humidity 14%
Rainfall 0.00 in
Snow Depth Not available.
6:17 AM 5:46 PM
Waxing Crescent, 13% visible
METAR KF70 012055Z AUTO 35005KT 10SM CLR 20/M02 A3023 RMK AO1

Get Your Daily Forecast Email!

Thanks for signing up!

Be on the lookout for a verification email in your inbox.

You'll start receiving the daily forecast at 8 AM.

×

10-Day Weather Forecast

Almanac

Astronomy

Mar. 01, 2017 Rise Set
Actual Time
Civil Twilight
Nautical Twilight
Astronomical Twilight
Moon
Length of Visible Light
Length of Day
Tomorrow will be .
, % of the Moon is Illuminated

Today's Extremes

State Highs State Lows

Community

WunderPhotos

Upload Photos

1,962,540 photos uploaded!

WunderBlog® & News

Nearby

Air Quality

  Air Quality AQ Index Pollutant
Not available.

Snow Depth

Station Depth Elevation

Earthquake Activity

City Distance Mag. Time & Date
Minimum magnitude displayed is 2.5.

Coastal Water Temperatures

Place Temperature

Stations

Nearby Weather Stations

Station Location Temp. Windchill Dew Point Humidity Wind Precip. Elev Updated Type
                   

Watches & Warnings

Wind Advisory
Issued: 1:09 PM PST Mar. 1, 2017 – National Weather Service

... Wind Advisory remains in effect from 10 PM this evening to
4 PM PST Thursday...

* winds... Santa Ana winds will become strong with occasional gusts
of 40 to 60 mph late tonight through Thursday afternoon.

* Timing and locations... strong and gusty winds below the passes
and canyons of the Santa Ana Mountains, the northern inland
Empire, and on Interstate 10 through the San Gorgonio Pass. Strongest
winds late tonight through midday Thursday.

* Impacts... minor property damage. Difficult driving conditions
for high-profile vehicles on Interstate 10 through the San
Gorgonio Pass and Interstate 15 through the Cajon Pass.

Precautionary/preparedness actions...

A Wind Advisory means that winds of 35 mph are expected. Winds
this strong can make driving difficult... especially for high
profile vehicles. Use extra caution.



Moede